Weather History for KJHW - February, 2013

Change the Weather History Date:

Wednesday, February 27, 2013

  Actual Average (WUND) Record (WUND)
Temperature  
Mean Temperature 32 °F -  
Max Temperature 35 °F - - (-1)
Min Temperature 30 °F - - (-1)
Degree Days  
Heating Degree Days 32    
Moisture  
Dew Point 31 °F    
Average Humidity 90    
Maximum Humidity 100    
Minimum Humidity 81    
Precipitation  
Precipitation 0.04 in - - ()
Sea Level Pressure  
Sea Level Pressure 29.57 in    
Wind  
Wind Speed 10 mph (SSW)    
Max Wind Speed 15 mph    
Max Gust Speed 23 mph    
Visibility 5 miles    
Events      
Averages and records for this station are not official NWS values.
T = Trace of Precipitation, MM = Missing Value Source: NWS Daily Summary

Daily Weather History Graph

Daily Weather History Graph

Search for Another Location

Airport or City:

Trip Planner

Search our weather history database for the weather conditions in past years. The results will help you decide how hot, cold, wet, or windy it might be!

Date:

Astronomy

Feb. 27, 2013 Rise Set
Actual Time 6:55 AM EST 6:04 PM EST
Civil Twilight 6:26 AM EST 6:33 PM EST
Nautical Twilight 5:54 AM EST 7:05 PM EST
Astronomical Twilight 5:22 AM EST 7:38 PM EST
Moon 8:28 PM EST (2/27) 7:26 AM EST (2/27)
Length of Visible Light 12h 06m
Length of Day
11h 09m
Waning Gibbous, 96% of the Moon is Illuminated
Feb 27
Waning Gibbous
Mar 4
Last Quarter
Mar 11
New
Mar 19
First Quarter
Mar 27
Full

Hourly Weather History & Observations

Time (EST) Temp. Windchill Dew Point Humidity Pressure Visibility Wind Dir Wind Speed Gust Speed Precip Events Conditions
12:15 AM 35.6 °F 26.2 °F 30.2 °F 81% 29.61 in 10.0 mi SE 15.0 mph 20.7 mph N/A   Overcast
12:35 AM 35.6 °F 27.1 °F 30.2 °F 81% 29.61 in 10.0 mi SE 12.7 mph 23.0 mph N/A   Overcast
12:55 AM 35.6 °F 27.1 °F 30.2 °F 81% 29.61 in 10.0 mi SE 12.7 mph - N/A   Overcast
1:15 AM 35.6 °F 26.6 °F 30.2 °F 81% 29.60 in 10.0 mi SE 13.8 mph 20.7 mph N/A   Overcast
1:35 AM 35.6 °F 26.2 °F 30.2 °F 81% 29.60 in 10.0 mi SE 15.0 mph 21.9 mph N/A   Overcast
1:55 AM 35.6 °F 27.1 °F 30.2 °F 81% 29.59 in 10.0 mi SE 12.7 mph 20.7 mph N/A   Overcast
2:15 AM 35.6 °F 27.5 °F 30.2 °F 81% 29.59 in 10.0 mi SE 11.5 mph 19.6 mph N/A   Overcast
2:35 AM 35.6 °F 26.6 °F 30.2 °F 81% 29.58 in 10.0 mi SE 13.8 mph 21.9 mph N/A   Overcast
2:55 AM 35.6 °F 27.1 °F 30.2 °F 81% 29.57 in 10.0 mi SSE 12.7 mph 17.3 mph N/A   Overcast
3:15 AM 35.6 °F 28.0 °F 30.2 °F 81% 29.56 in 10.0 mi SSE 10.4 mph - N/A   Overcast
3:35 AM 35.6 °F 27.5 °F 30.2 °F 81% 29.56 in 10.0 mi SSE 11.5 mph 17.3 mph N/A   Overcast
3:55 AM 33.8 °F 24.8 °F 30.2 °F 87% 29.54 in 10.0 mi SSE 12.7 mph - N/A   Overcast
4:15 AM 33.8 °F 25.8 °F 30.2 °F 87% 29.54 in 10.0 mi SSE 10.4 mph 17.3 mph N/A   Overcast
4:35 AM 33.8 °F 24.8 °F 30.2 °F 87% 29.54 in 10.0 mi SSE 12.7 mph - N/A   Overcast
4:55 AM 33.8 °F 26.4 °F 30.2 °F 87% 29.54 in 10.0 mi SSE 9.2 mph - N/A   Overcast
5:35 AM 33.8 °F 29.6 °F 30.2 °F 87% 29.54 in 10.0 mi SSE 4.6 mph - N/A   Overcast
5:55 AM 33.8 °F 29.6 °F 30.2 °F 87% 29.54 in 10.0 mi SSE 4.6 mph - N/A   Overcast
6:15 AM 33.8 °F 29.6 °F 30.2 °F 87% 29.54 in 5.0 mi SSE 4.6 mph - N/A   Overcast
6:35 AM 33.8 °F 29.6 °F 30.2 °F 87% 29.54 in 9.0 mi SSE 4.6 mph - N/A   Overcast
6:55 AM 33.8 °F 28.6 °F 30.2 °F 87% 29.54 in 4.0 mi SSE 5.8 mph - N/A   Overcast
7:15 AM 32.0 °F 26.4 °F 30.2 °F 93% 29.54 in 2.5 mi South 5.8 mph - N/A   Overcast
7:35 AM 32.0 °F 25.6 °F 30.2 °F 93% 29.54 in 2.5 mi South 6.9 mph - N/A   Overcast
7:55 AM 32.0 °F 25.6 °F 30.2 °F 93% 29.54 in 1.5 mi South 6.9 mph - N/A   Overcast
8:35 AM 32.0 °F 24.8 °F 30.2 °F 93% 29.55 in 1.8 mi South 8.1 mph - 0.02 in   Overcast
8:55 AM 32.0 °F 25.6 °F 30.2 °F 93% 29.55 in 0.8 mi South 6.9 mph - 0.02 in   Overcast
9:15 AM 32.0 °F 25.6 °F 30.2 °F 93% 29.55 in 1.5 mi South 6.9 mph - N/A   Overcast
9:35 AM 32.0 °F 25.6 °F 30.2 °F 93% 29.55 in 1.8 mi South 6.9 mph - N/A   Overcast
9:55 AM 32.0 °F 26.4 °F 30.2 °F 93% 29.55 in 1.2 mi South 5.8 mph - 0.01 in   Overcast
10:15 AM 32.0 °F 27.5 °F 30.2 °F 93% 29.56 in 2.0 mi South 4.6 mph - N/A   Overcast
10:35 AM 32.0 °F 26.4 °F 30.2 °F 93% 29.56 in 1.8 mi South 5.8 mph - N/A   Overcast
10:55 AM 33.8 °F 27.7 °F 30.2 °F 87% 29.56 in 1.2 mi SSW 6.9 mph - N/A   Overcast
11:15 AM 33.8 °F 28.6 °F 30.2 °F 87% 29.56 in 2.0 mi SSW 5.8 mph - N/A   Overcast
11:35 AM 33.8 °F 28.6 °F 30.2 °F 87% 29.57 in 1.2 mi SW 5.8 mph - N/A   Overcast
11:55 AM 33.8 °F 28.6 °F 32.0 °F 93% 29.57 in 1.8 mi SW 5.8 mph - N/A   Overcast
12:15 PM 33.8 °F 29.6 °F 30.2 °F 87% 29.57 in 3.0 mi SSW 4.6 mph - N/A   Overcast
12:35 PM 33.8 °F 28.6 °F 32.0 °F 93% 29.57 in 3.0 mi SSW 5.8 mph - N/A   Overcast
12:55 PM 33.8 °F 28.6 °F 32.0 °F 93% 29.57 in 2.5 mi SW 5.8 mph - N/A   Overcast
1:15 PM 33.8 °F 28.6 °F 30.2 °F 87% 29.56 in 3.0 mi SW 5.8 mph - N/A   Overcast
1:35 PM 33.8 °F 27.7 °F 32.0 °F 93% 29.56 in 3.0 mi SW 6.9 mph - N/A   Overcast
1:55 PM 33.8 °F 27.0 °F 32.0 °F 93% 29.56 in 1.5 mi SW 8.1 mph - N/A   Overcast
2:15 PM 33.8 °F 28.6 °F 33.8 °F 100% 29.56 in 1.2 mi WSW 5.8 mph - 0.01 in   Overcast
2:35 PM 35.6 °F 29.9 °F 33.8 °F 93% 29.56 in 1.5 mi WSW 6.9 mph - 0.01 in   Overcast
2:55 PM 35.6 °F 30.7 °F 33.8 °F 93% 29.56 in 3.0 mi WSW 5.8 mph - 0.01 in   Overcast
3:15 PM 35.6 °F 29.9 °F 33.8 °F 93% 29.56 in 4.0 mi WSW 6.9 mph - N/A   Overcast
3:35 PM 35.6 °F 29.9 °F 33.8 °F 93% 29.56 in 2.0 mi SW 6.9 mph - N/A   Overcast
3:55 PM 35.6 °F 28.6 °F 33.8 °F 93% 29.56 in 0.8 mi WSW 9.2 mph - N/A   Overcast
4:15 PM 35.6 °F 29.9 °F 33.8 °F 93% 29.56 in 0.8 mi SW 6.9 mph - N/A   Overcast
4:35 PM 35.6 °F 29.9 °F 33.8 °F 93% 29.57 in 0.5 mi SW 6.9 mph - N/A   Overcast
4:55 PM 35.6 °F 29.2 °F 33.8 °F 93% 29.57 in 0.5 mi WSW 8.1 mph - N/A   Overcast
5:15 PM 35.6 °F 28.6 °F 33.8 °F 93% 29.57 in 0.8 mi SW 9.2 mph - N/A   Overcast
5:35 PM 35.6 °F 29.2 °F 33.8 °F 93% 29.58 in 2.0 mi SW 8.1 mph - N/A   Overcast
5:55 PM 35.6 °F 29.2 °F 33.8 °F 93% 29.58 in 5.0 mi SW 8.1 mph - N/A   Overcast
6:15 PM 35.6 °F 29.9 °F 33.8 °F 93% 29.58 in 7.0 mi WSW 6.9 mph - N/A   Overcast
6:35 PM 33.8 °F 25.3 °F 30.2 °F 87% 29.60 in 1.2 mi WNW 11.5 mph - N/A   Overcast
6:55 PM 33.8 °F 25.8 °F 30.2 °F 87% 29.60 in 1.8 mi WNW 10.4 mph - N/A   Overcast
7:15 PM 32.0 °F 24.8 °F 30.2 °F 93% 29.60 in 1.5 mi NW 8.1 mph - N/A   Overcast
7:35 PM 32.0 °F 25.6 °F 30.2 °F 93% 29.60 in 5.0 mi West 6.9 mph - N/A   Overcast
7:55 PM 32.0 °F 24.2 °F 30.2 °F 93% 29.60 in 4.0 mi West 9.2 mph - N/A   Overcast
8:15 PM 32.0 °F 24.8 °F 30.2 °F 93% 29.59 in 5.0 mi West 8.1 mph - N/A   Overcast
8:35 PM 32.0 °F 24.8 °F 30.2 °F 93% 29.59 in 2.0 mi West 8.1 mph - N/A   Overcast
9:15 PM 32.0 °F 24.8 °F 28.4 °F 87% 29.59 in 4.0 mi West 8.1 mph - N/A   Overcast
9:35 PM 30.2 °F 24.3 °F 28.4 °F 93% 29.58 in 3.0 mi WSW 5.8 mph - N/A   Overcast
9:55 PM 30.2 °F 24.3 °F 30.2 °F 100% 29.58 in 6.0 mi WSW 5.8 mph - N/A   Overcast
10:15 PM 30.2 °F 24.3 °F 28.4 °F 93% 29.58 in 4.0 mi SW 5.8 mph - N/A   Overcast
10:35 PM 30.2 °F 24.3 °F 28.4 °F 93% 29.58 in 9.0 mi WSW 5.8 mph - N/A   Overcast
10:55 PM 30.2 °F 22.6 °F 28.4 °F 93% 29.57 in 9.0 mi West 8.1 mph - N/A   Overcast
11:35 PM 30.2 °F 24.3 °F 30.2 °F 100% 29.57 in 1.5 mi SW 5.8 mph - N/A   Overcast
11:55 PM 30.2 °F 26.7 °F 30.2 °F 100% 29.56 in 4.0 mi SW 3.5 mph - N/A   Overcast